Time;durP1;ratioP1;P1;durP2;ratioP2;P2;SDS_P1;SDS_P2;PMS_P1;PMS_P2;Temp;Humidity;BMP_temperature;BMP_pressure;BME280_temperature;BME280_humidity;BME280_pressure;Samples;Min_cycle;Max_cycle;Signal;HPM_P1;HPM_P2
2022/01/08 00:00:26;;;;;;;67.43;23.37;;;-2.30;99.90;;;;;;4904517;29;20221;-85
2022/01/08 00:02:54;;;;;;;31.73;14.13;;;-2.30;99.90;;;;;;4904208;29;20247;-87
2022/01/08 00:05:20;;;;;;;30.83;11.17;;;-2.30;99.90;;;;;;4903799;29;20200;-87
2022/01/08 00:07:47;;;;;;;41.23;16.87;;;;;;;;;;4920933;29;20192;-87
2022/01/08 00:10:13;;;;;;;21.20;9.83;;;;;;;;;;4904073;29;20194;-86
2022/01/08 00:12:39;;;;;;;23.13;9.90;;;;;;;;;;4920317;29;20184;-86
2022/01/08 00:15:07;;;;;;;32.43;12.47;;;-2.30;99.90;;;;;;4903903;29;20182;-85
2022/01/08 00:17:33;;;;;;;30.47;10.67;;;-2.40;99.90;;;;;;4887899;29;20190;-87
2022/01/08 00:19:59;;;;;;;31.90;12.60;;;;;;;;;;4902953;29;20213;-87
2022/01/08 00:22:25;;;;;;;35.40;14.17;;;;;;;;;;4920111;29;20236;-87
2022/01/08 00:24:54;;;;;;;44.20;14.80;;;;;;;;;;4888194;29;20198;-87
2022/01/08 00:27:21;;;;;;;34.43;12.40;;;-2.50;99.90;;;;;;4903581;29;20196;-87
2022/01/08 00:29:48;;;;;;;34.37;12.60;;;;;;;;;;4903597;29;20654;-87
2022/01/08 00:32:14;;;;;;;42.73;14.77;;;;;;;;;;4903607;29;20191;-86
2022/01/08 00:34:40;;;;;;;27.97;11.67;;;;;;;;;;4920479;29;20216;-86
2022/01/08 00:37:07;;;;;;;27.13;12.47;;;;;;;;;;4903365;29;20254;-87
2022/01/08 00:39:37;;;;;;;25.60;10.73;;;-2.60;99.90;;;;;;4887938;29;20221;-87
2022/01/08 00:42:03;;;;;;;22.43;7.00;;;-1.60;99.90;;;;;;4904069;29;20257;-86
2022/01/08 00:44:29;;;;;;;25.57;9.70;;;;;;;;;;4887783;29;20182;-87
2022/01/08 00:46:55;;;;;;;26.10;10.43;;;;;;;;;;4888249;29;20196;-87
2022/01/08 00:49:24;;;;;;;28.87;10.03;;;;;;;;;;4887578;29;20195;-88
2022/01/08 00:51:50;;;;;;;29.43;10.47;;;;;;;;;;4903466;29;20589;-87
2022/01/08 00:54:16;;;;;;;22.50;9.07;;;;;;;;;;4888454;29;20189;-88
2022/01/08 00:56:42;;;;;;;26.83;12.27;;;;;;;;;;4889209;29;20193;-87
2022/01/08 00:59:08;;;;;;;24.83;9.97;;;;;;;;;;4916806;29;20262;-87
2022/01/08 01:01:34;;;;;;;26.40;10.53;;;;;;;;;;4945879;29;20176;-90
2022/01/08 01:04:00;;;;;;;16.60;8.07;;;;;;;;;;4962537;29;20169;-89
2022/01/08 01:06:26;;;;;;;21.00;7.93;;;;;;;;;;4940467;29;20683;-88
2022/01/08 01:08:52;;;;;;;22.90;9.17;;;;;;;;;;4906146;29;20195;-87
2022/01/08 01:11:18;;;;;;;28.77;10.53;;;;;;;;;;4938638;29;20194;-86
2022/01/08 01:13:44;;;;;;;23.53;10.43;;;;;;;;;;4921702;29;21116;-87
2022/01/08 01:16:10;;;;;;;33.10;11.23;;;;;;;;;;4938552;29;20181;-87
2022/01/08 01:18:37;;;;;;;27.33;9.23;;;;;;;;;;4921496;29;20327;-88
2022/01/08 01:21:03;;;;;;;24.83;9.37;;;;;;;;;;4905962;29;20286;-87
2022/01/08 01:23:35;;;;;;;34.07;11.77;;;;;;;;;;4938857;29;20257;-87
2022/01/08 01:26:05;;;;;;;41.47;12.67;;;;;;;;;;4921951;29;20552;-87
2022/01/08 01:41:11;;;;;;;37.73;14.33;;;;;;;;;;4938423;29;20189;-87
2022/01/08 01:47:28;;;;;;;23.80;9.60;;;-3.30;99.90;;;;;;4938484;29;20235;-86
2022/01/08 01:49:54;;;;;;;51.50;19.60;;;;;;;;;;4935871;29;20183;-87
2022/01/08 01:52:20;;;;;;;37.33;13.13;;;;;;;;;;4953959;29;20180;-86
2022/01/08 01:54:46;;;;;;;28.73;12.03;;;;;;;;;;4935623;29;20186;-87
2022/01/08 01:57:13;;;;;;;37.07;15.50;;;-3.40;99.90;;;;;;4930354;29;20195;-86
2022/01/08 01:59:43;;;;;;;32.77;13.33;;;-3.40;99.90;;;;;;4939233;29;20283;-86
2022/01/08 02:02:09;;;;;;;19.03;9.10;;;;;;;;;;4937951;29;20210;-86
2022/01/08 02:04:35;;;;;;;28.13;10.80;;;;;;;;;;4937793;29;20186;-86
2022/01/08 02:07:02;;;;;;;36.77;11.27;;;;;;;;;;4920012;29;20191;-86
2022/01/08 02:09:28;;;;;;;24.37;9.90;;;;;;;;;;4937496;29;20180;-86
2022/01/08 02:11:59;;;;;;;22.73;9.30;;;-3.80;99.90;;;;;;4905320;29;20240;-86
2022/01/08 02:14:27;;;;;;;21.30;9.10;;;-3.50;99.90;;;;;;4937840;29;20304;-86
2022/01/08 02:16:54;;;;;;;26.63;10.33;;;;;;;;;;4920439;29;20186;-86
2022/01/08 02:19:20;;;;;;;30.27;10.90;;;;;;;;;;4920605;29;20219;-86
2022/01/08 02:21:50;;;;;;;31.77;12.00;;;-3.50;99.90;;;;;;4937412;29;20184;-86
2022/01/08 02:24:16;;;;;;;38.50;13.40;;;;;;;;;;4920455;29;20171;-86
2022/01/08 02:26:43;;;;;;;32.20;12.53;;;;;;;;;;4920197;29;20251;-86
2022/01/08 02:29:13;;;;;;;40.93;20.70;;;-3.40;99.90;;;;;;4904749;29;20630;-86
2022/01/08 02:31:39;;;;;;;32.50;14.40;;;;;;;;;;4919897;29;20293;-86
2022/01/08 02:34:05;;;;;;;28.13;12.43;;;;;;;;;;4920034;29;20185;-86
2022/01/08 02:36:32;;;;;;;28.43;11.07;;;;;;;;;;4920031;29;20217;-85
2022/01/08 02:38:58;;;;;;;32.13;11.43;;;;;;;;;;4936661;29;20185;-86
2022/01/08 02:41:26;;;;;;;29.50;11.97;;;;;;;;;;4936963;29;20239;-85
2022/01/08 02:43:53;;;;;;;29.50;11.80;;;;;;;;;;4919913;29;20194;-87
2022/01/08 02:46:20;;;;;;;29.03;10.33;;;-3.80;99.90;;;;;;4919725;29;20186;-87
2022/01/08 02:48:46;;;;;;;26.87;10.63;;;;;;;;;;4904216;29;20211;-87
2022/01/08 02:51:12;;;;;;;104.00;34.67;;;;;;;;;;4904395;29;20188;-87
2022/01/08 02:53:38;;;;;;;88.13;31.73;;;;;;;;;;4919796;29;20188;-89
2022/01/08 02:56:04;;;;;;;39.13;13.70;;;-3.80;99.90;;;;;;4920162;29;20238;-86
2022/01/08 02:58:31;;;;;;;37.07;13.57;;;;;;;;;;4919706;29;20259;-86
2022/01/08 03:00:57;;;;;;;29.70;12.47;;;;;;;;;;4919526;29;20262;-86
2022/01/08 03:03:23;;;;;;;32.83;13.60;;;;;;;;;;4919604;29;20195;-86
2022/01/08 03:05:49;;;;;;;22.80;10.10;;;;;;;;;;4919467;29;20282;-86
2022/01/08 03:08:15;;;;;;;18.73;8.73;;;;;;;;;;4936534;29;20180;-86
2022/01/08 03:10:41;;;;;;;21.83;9.07;;;;;;;;;;4936476;29;20179;-87
2022/01/08 03:13:07;;;;;;;24.13;9.23;;;;;;;;;;4919777;29;20185;-86
2022/01/08 03:15:36;;;;;;;20.77;8.03;;;-3.90;99.90;;;;;;4919395;29;20187;-86
2022/01/08 03:18:03;;;;;;;19.87;8.87;;;-3.90;99.90;;;;;;4936635;29;20183;-86
2022/01/08 03:20:29;;;;;;;24.30;9.17;;;;;;;;;;4935690;29;20302;-85
2022/01/08 03:23:02;;;;;;;25.57;10.93;;;;;;;;;;4919583;29;20189;-85
2022/01/08 03:25:28;;;;;;;27.37;9.10;;;;;;;;;;4936572;29;20186;-85
2022/01/08 03:27:54;;;;;;;26.23;9.10;;;;;;;;;;4936382;29;20180;-86
2022/01/08 03:30:21;;;;;;;24.60;9.47;;;;;;;;;;4919727;29;20195;-86
2022/01/08 03:32:47;;;;;;;21.13;10.20;;;;;;;;;;4919801;29;20195;-86
2022/01/08 03:35:13;;;;;;;18.90;8.33;;;;;;;;;;4919662;29;20180;-85
2022/01/08 03:37:39;;;;;;;16.27;7.00;;;;;;;;;;4904144;29;20188;-85
2022/01/08 03:40:06;;;;;;;15.37;7.20;;;-3.90;99.90;;;;;;4936477;29;20212;-87
2022/01/08 03:42:32;;;;;;;13.57;6.73;;;;;;;;;;4919213;29;20226;-87
2022/01/08 03:44:58;;;;;;;20.63;8.07;;;;;;;;;;4919041;29;20192;-86
2022/01/08 03:49:53;;;;;;;19.37;8.30;;;;;;;;;;4936030;29;20245;-87
2022/01/08 03:52:19;;;;;;;15.67;8.00;;;-4.00;99.90;;;;;;4919090;29;20712;-86
2022/01/08 03:54:45;;;;;;;17.27;7.63;;;;;;;;;;4903692;29;20189;-88
2022/01/08 03:57:12;;;;;;;12.47;6.33;;;;;;;;;;4919112;29;20192;-87
2022/01/08 03:59:38;;;;;;;19.40;6.93;;;;;;;;;;4918832;29;20251;-88
2022/01/08 04:02:04;;;;;;;15.57;7.97;;;-4.30;99.90;;;;;;4903293;29;20220;-89
2022/01/08 04:04:30;;;;;;;15.57;6.77;;;;;;;;;;4919039;29;20247;-88
2022/01/08 04:06:56;;;;;;;13.43;6.50;;;;;;;;;;4935831;29;20191;-87
2022/01/08 04:09:22;;;;;;;14.10;6.40;;;;;;;;;;4918758;29;20374;-89
2022/01/08 04:11:49;;;;;;;12.33;6.30;;;;;;;;;;4919215;29;20278;-89
2022/01/08 04:14:16;;;;;;;14.13;6.57;;;;;;;;;;4903583;29;20704;-90
2022/01/08 04:16:46;;;;;;;11.00;6.10;;;;;;;;;;4903838;29;20192;-88
2022/01/08 04:19:12;;;;;;;9.97;6.20;;;;;;;;;;4919693;29;20215;-88
2022/01/08 04:21:59;;;;;;;15.20;6.80;;;;;;;;;;4919027;29;20192;-88
2022/01/08 04:24:26;;;;;;;15.20;6.90;;;-4.00;99.90;;;;;;4906271;29;20216;-87
2022/01/08 04:26:52;;;;;;;11.03;6.20;;;;;;;;;;4935780;29;20211;-87
2022/01/08 04:29:19;;;;;;;13.60;6.43;;;;;;;;;;4919372;29;20279;-88
2022/01/08 04:31:45;;;;;;;12.47;6.10;;;;;;;;;;4921452;29;20191;-88
2022/01/08 04:34:11;;;;;;;25.90;10.33;;;;;;;;;;4922447;29;20326;-88
2022/01/08 04:36:37;;;;;;;19.83;8.17;;;;;;;;;;4906682;29;20188;-89
2022/01/08 04:39:03;;;;;;;16.57;7.33;;;;;;;;;;4906554;29;20190;-87
2022/01/08 04:41:29;;;;;;;23.23;9.87;;;;;;;;;;4922695;29;20192;-87
2022/01/08 04:43:55;;;;;;;18.33;8.57;;;;;;;;;;4939488;29;20181;-87
2022/01/08 04:46:21;;;;;;;32.33;12.07;;;;;;;;;;4906924;29;20304;-89
2022/01/08 04:48:47;;;;;;;31.90;13.10;;;;;;;;;;4922754;29;20201;-89
2022/01/08 04:51:13;;;;;;;31.30;12.30;;;;;;;;;;4924462;29;20187;-89
2022/01/08 04:53:39;;;;;;;38.43;12.30;;;;;;;;;;4924926;29;20180;-87
2022/01/08 04:56:06;;;;;;;32.97;11.90;;;;;;;;;;4921602;29;20172;-89
2022/01/08 04:58:32;;;;;;;15.60;7.40;;;;;;;;;;4962590;29;20231;-88
2022/01/08 05:00:58;;;;;;;14.13;7.00;;;;;;;;;;4935072;29;20692;-87
2022/01/08 05:03:24;;;;;;;23.33;8.97;;;;;;;;;;4906769;29;20269;-86
2022/01/08 05:05:50;;;;;;;38.30;11.53;;;;;;;;;;4939286;29;20180;-87
2022/01/08 05:08:16;;;;;;;53.20;16.57;;;-4.30;99.90;;;;;;4922345;29;20187;-86
2022/01/08 05:10:42;;;;;;;78.23;26.03;;;;;;;;;;4939089;29;20196;-86
2022/01/08 05:13:08;;;;;;;98.97;29.57;;;;;;;;;;4906357;29;20255;-87
2022/01/08 05:15:35;;;;;;;83.13;26.90;;;-4.10;99.90;;;;;;4905998;29;20715;-88
2022/01/08 05:18:03;;;;;;;76.30;23.73;;;;;;;;;;4937904;29;20187;-86
2022/01/08 05:20:33;;;;;;;51.00;19.27;;;;;;;;;;4921382;29;20216;-86
2022/01/08 05:23:03;;;;;;;53.87;18.00;;;;;;;;;;4921384;29;20548;-86
2022/01/08 05:25:30;;;;;;;60.60;20.87;;;-4.20;99.90;;;;;;4921598;29;20219;-86
2022/01/08 05:27:56;;;;;;;80.17;23.83;;;-4.20;99.90;;;;;;4921123;29;20181;-89
2022/01/08 05:30:23;;;;;;;61.43;20.77;;;-4.30;99.90;;;;;;4938018;29;20180;-86
2022/01/08 05:32:50;;;;;;;90.97;28.30;;;;;;;;;;4938089;29;20211;-86
2022/01/08 05:35:16;;;;;;;78.47;26.77;;;;;;;;;;4921199;29;20216;-87
2022/01/08 05:37:43;;;;;;;82.53;23.67;;;;;;;;;;4920831;29;20188;-88
2022/01/08 05:40:09;;;;;;;72.87;23.57;;;-4.60;99.90;;;;;;4921167;29;20310;-88
2022/01/08 05:42:35;;;;;;;65.83;22.67;;;;;;;;;;4937270;29;20652;-88
2022/01/08 05:45:01;;;;;;;58.87;19.33;;;;;;;;;;4904980;29;20187;-88
2022/01/08 05:47:30;;;;;;;46.80;14.63;;;;;;;;;;4905627;29;20184;-86
2022/01/08 05:49:56;;;;;;;31.77;11.63;;;;;;;;;;4921547;29;20192;-87
2022/01/08 05:52:22;;;;;;;49.50;16.40;;;;;;;;;;4937820;29;20199;-88
2022/01/08 05:54:48;;;;;;;39.83;15.83;;;;;;;;;;4937766;29;20266;-87
2022/01/08 05:57:14;;;;;;;44.30;15.97;;;;;;;;;;4920585;29;20199;-87
2022/01/08 05:59:40;;;;;;;35.33;14.83;;;;;;;;;;4937441;29;20243;-87
2022/01/08 06:02:09;;;;;;;25.90;12.27;;;;;;;;;;4904514;29;20232;-87
2022/01/08 06:04:35;;;;;;;24.03;11.07;;;;;;;;;;4937673;29;20181;-86
2022/01/08 06:07:01;;;;;;;23.00;10.47;;;;;;;;;;4920381;29;20283;-87
2022/01/08 06:09:27;;;;;;;19.03;9.00;;;;;;;;;;4937801;29;20191;-87
2022/01/08 06:11:53;;;;;;;17.43;8.90;;;;;;;;;;4920484;29;20183;-87
2022/01/08 06:14:19;;;;;;;12.73;6.90;;;;;;;;;;4904741;29;20187;-87
2022/01/08 06:16:45;;;;;;;22.50;10.47;;;;;;;;;;4920539;29;20279;-87
2022/01/08 06:19:13;;;;;;;21.17;10.33;;;-4.50;99.90;;;;;;4937302;29;20633;-87
2022/01/08 06:21:39;;;;;;;26.33;10.43;;;;;;;;;;4937371;29;20218;-88
2022/01/08 06:24:06;;;;;;;23.07;11.23;;;-4.60;99.90;;;;;;4920462;29;20184;-88
2022/01/08 06:26:32;;;;;;;23.57;10.67;;;;;;;;;;4920912;29;20246;-87
2022/01/08 06:28:58;;;;;;;18.67;10.50;;;;;;;;;;4937241;29;20183;-87
2022/01/08 06:31:24;;;;;;;19.37;8.53;;;-4.50;99.90;;;;;;4920417;29;20195;-87
2022/01/08 06:33:51;;;;;;;20.13;8.87;;;-4.50;99.90;;;;;;4920512;29;20214;-85
2022/01/08 06:36:18;;;;;;;15.47;7.27;;;;;;;;;;4937325;29;20289;-83
2022/01/08 06:38:45;;;;;;;13.73;7.10;;;;;;;;;;4920487;29;20188;-85
2022/01/08 06:41:11;;;;;;;13.47;6.50;;;;;;;;;;4904528;29;20320;-86
2022/01/08 06:43:37;;;;;;;13.13;6.63;;;;;;;;;;4919966;29;20195;-85
2022/01/08 06:46:03;;;;;;;16.03;7.00;;;;;;;;;;4900937;29;20199;-84
2022/01/08 06:48:29;;;;;;;10.97;6.87;;;;;;;;;;4901105;29;20188;-88
2022/01/08 06:50:55;;;;;;;15.33;8.13;;;;;;;;;;4918311;29;20252;-84
2022/01/08 06:53:21;;;;;;;16.20;8.43;;;;;;;;;;4900792;29;20195;-84
2022/01/08 06:55:47;;;;;;;23.30;9.33;;;;;;;;;;4930681;29;20187;-84
2022/01/08 06:58:14;;;;;;;22.00;11.03;;;;;;;;;;4934390;29;20223;-84
2022/01/08 07:00:40;;;;;;;20.87;10.33;;;;;;;;;;4934983;29;20200;-86
2022/01/08 07:03:09;;;;;;;25.73;11.50;;;;;;;;;;4912355;29;20197;-85
2022/01/08 07:05:36;;;;;;;46.83;19.27;;;;;;;;;;4910894;29;20239;-84
2022/01/08 07:08:02;;;;;;;39.13;14.40;;;;;;;;;;4929977;29;20550;-85
2022/01/08 07:10:28;;;;;;;36.53;16.03;;;;;;;;;;4922614;29;20196;-86
2022/01/08 07:12:54;;;;;;;21.00;10.10;;;;;;;;;;4910256;29;20196;-84
2022/01/08 07:15:20;;;;;;;28.20;12.07;;;;;;;;;;4912347;29;20600;-85
2022/01/08 07:17:46;;;;;;;28.57;12.03;;;;;;;;;;4900702;29;20660;-84
2022/01/08 07:20:12;;;;;;;39.93;15.77;;;;;;;;;;4929786;29;20270;-85
2022/01/08 07:22:39;;;;;;;48.53;19.73;;;;;;;;;;4903312;29;20200;-85
2022/01/08 07:25:05;;;;;;;56.00;25.43;;;-4.50;99.90;;;;;;4936458;29;20190;-86
2022/01/08 07:27:32;;;;;;;46.33;18.77;;;;;;;;;;4919419;29;20220;-85
2022/01/08 07:30:04;;;;;;;53.33;25.00;;;-4.30;99.90;;;;;;4933122;29;20238;-85
2022/01/08 07:32:30;;;;;;;54.27;21.77;;;;;;;;;;4931395;29;20192;-85
2022/01/08 07:34:56;;;;;;;70.07;29.10;;;;;;;;;;4933925;29;20198;-85
2022/01/08 07:37:22;;;;;;;78.00;31.53;;;;;;;;;;4901882;29;20320;-84
2022/01/08 07:39:49;;;;;;;80.30;32.90;;;;;;;;;;4906738;29;20224;-86
2022/01/08 07:42:15;;;;;;;67.60;31.17;;;;;;;;;;4914090;29;20204;-87
2022/01/08 07:44:41;;;;;;;69.20;29.17;;;;;;;;;;4928521;29;20192;-86
2022/01/08 07:47:07;;;;;;;79.23;33.67;;;-4.50;99.90;;;;;;4938144;29;20247;-86
2022/01/08 07:49:33;;;;;;;74.87;34.17;;;;;;;;;;4920951;29;20553;-85
2022/01/08 07:52:00;;;;;;;80.60;33.07;;;-4.50;99.90;;;;;;4914668;29;20196;-85
2022/01/08 07:54:26;;;;;;;74.70;29.23;;;;;;;;;;4939302;29;20184;-84
2022/01/08 07:56:52;;;;;;;61.07;26.67;;;;;;;;;;4912220;29;20228;-86
2022/01/08 07:59:18;;;;;;;62.87;24.77;;;;;;;;;;4925350;29;20267;-85
2022/01/08 08:01:44;;;;;;;64.70;24.73;;;;;;;;;;4940398;29;20233;-84
2022/01/08 08:04:10;;;;;;;39.63;16.13;;;;;;;;;;4923622;29;20195;-85
2022/01/08 08:06:46;;;;;;;37.37;15.10;;;-4.20;99.90;;;;;;4926552;29;20197;-84
2022/01/08 08:09:12;;;;;;;54.30;22.50;;;;;;;;;;4938854;29;20187;-86
2022/01/08 08:11:38;;;;;;;37.23;17.17;;;;;;;;;;4956945;29;20244;-89
2022/01/08 08:14:04;;;;;;;41.03;15.20;;;;;;;;;;4963238;29;20202;-85
2022/01/08 08:16:30;;;;;;;35.83;14.87;;;;;;;;;;4939903;29;20206;-88
2022/01/08 08:18:56;;;;;;;34.50;15.87;;;;;;;;;;4960428;29;20196;-88
2022/01/08 08:21:22;;;;;;;47.03;11.67;;;;;;;;;;4945715;29;20214;-88
2022/01/08 08:23:48;;;;;;;93.50;42.00;;;;;;;;;;4946221;29;20184;-87
2022/01/08 08:26:14;;;;;;;60.87;31.30;;;;;;;;;;4941094;29;20196;-87
2022/01/08 08:28:40;;;;;;;45.57;19.60;;;;;;;;;;4929779;29;20213;-86
2022/01/08 08:31:07;;;;;;;78.23;27.47;;;;;;;;;;4923114;29;20288;-85
2022/01/08 08:33:33;;;;;;;50.50;21.30;;;;;;;;;;4936288;29;20236;-84
2022/01/08 08:35:59;;;;;;;33.13;13.00;;;;;;;;;;4924305;29;20267;-84
2022/01/08 08:38:25;;;;;;;54.23;25.63;;;;;;;;;;4940244;29;20211;-85
2022/01/08 08:40:51;;;;;;;65.03;24.33;;;;;;;;;;4941472;29;20209;-86
2022/01/08 08:43:19;;;;;;;41.57;18.53;;;;;;;;;;4910486;29;20204;-86
2022/01/08 08:45:45;;;;;;;35.87;17.67;;;;;;;;;;4911201;29;20187;-85
2022/01/08 08:48:12;;;;;;;68.00;25.83;;;;;;;;;;4912398;29;20193;-86
2022/01/08 08:50:38;;;;;;;33.30;15.83;;;;;;;;;;4911332;29;20193;-87
2022/01/08 08:53:04;;;;;;;31.13;14.90;;;;;;;;;;4926310;29;20190;-87
2022/01/08 08:55:30;;;;;;;21.37;10.13;;;;;;;;;;4941593;29;20245;-86
2022/01/08 08:57:56;;;;;;;17.87;8.90;;;;;;;;;;4944656;29;20189;-86
2022/01/08 09:00:22;;;;;;;21.53;8.93;;;;;;;;;;4890675;29;20339;-86
2022/01/08 09:02:50;;;;;;;16.73;8.43;;;;;;;;;;4935232;29;20223;-88
2022/01/08 09:05:16;;;;;;;15.33;7.03;;;;;;;;;;4923487;29;20617;-86
2022/01/08 09:07:42;;;;;;;27.47;11.83;;;;;;;;;;4940835;29;20191;-87
2022/01/08 09:10:09;;;;;;;118.40;37.90;;;-2.30;99.90;;;;;;4901876;29;20244;-87
2022/01/08 09:12:37;;;;;;;40.73;15.73;;;-2.20;99.90;;;;;;4904758;29;20196;-87
2022/01/08 09:15:04;;;;;;;38.60;13.67;;;-2.20;99.90;;;;;;4920149;29;20190;-86
2022/01/08 09:17:32;;;;;;;18.73;8.27;;;-2.10;99.90;;;;;;4904704;29;20180;-86
2022/01/08 09:19:58;;;;;;;30.30;10.43;;;;;;;;;;4921352;29;20204;-87
2022/01/08 09:22:25;;;;;;;16.27;7.57;;;;;;;;;;4922013;29;20207;-86
2022/01/08 09:24:53;;;;;;;11.97;6.40;;;;;;;;;;4903555;29;20288;-85
2022/01/08 09:27:19;;;;;;;11.50;6.67;;;;;;;;;;4916361;29;20665;-85
2022/01/08 09:29:45;;;;;;;16.33;6.63;;;;;;;;;;4912024;29;20659;-84
2022/01/08 09:32:11;;;;;;;10.97;5.80;;;;;;;;;;4915045;29;20193;-86
2022/01/08 09:34:38;;;;;;;12.70;5.23;;;;;;;;;;4930757;29;20189;-86
2022/01/08 09:37:05;;;;;;;12.93;4.90;;;-2.10;99.90;;;;;;4922770;29;20191;-85
2022/01/08 09:39:32;;;;;;;17.83;7.77;;;;;;;;;;4922611;29;20219;-84
2022/01/08 09:41:58;;;;;;;27.00;11.67;;;;;;;;;;4934236;29;20197;-85
2022/01/08 09:44:24;;;;;;;21.47;8.87;;;;;;;;;;4956768;29;20235;-87
2022/01/08 09:46:50;;;;;;;28.37;12.47;;;;;;;;;;4927474;29;20211;-87
2022/01/08 09:49:17;;;;;;;54.50;20.00;;;;;;;;;;4956829;29;20208;-86
2022/01/08 09:51:43;;;;;;;37.40;14.67;;;;;;;;;;4928093;29;20660;-85
2022/01/08 09:54:09;;;;;;;16.03;8.30;;;;;;;;;;4923499;29;20205;-85
2022/01/08 09:56:35;;;;;;;25.30;9.73;;;;;;;;;;4912206;29;20198;-84
2022/01/08 09:59:01;;;;;;;13.57;8.27;;;;;;;;;;4915289;29;20250;-83
2022/01/08 10:01:35;;;;;;;23.67;8.90;;;-1.10;99.90;;;;;;4909264;29;20262;-82
2022/01/08 10:04:03;;;;;;;13.70;6.40;;;-1.20;99.90;;;;;;4933349;29;20244;-83
2022/01/08 10:06:34;;;;;;;16.03;6.73;;;-1.10;99.90;;;;;;4937600;29;20186;-83
2022/01/08 10:09:01;;;;;;;18.03;7.33;;;;;;;;;;4927867;29;20534;-82
2022/01/08 10:11:28;;;;;;;15.67;7.77;;;;;;;;;;4917408;29;20207;-83
2022/01/08 10:14:07;;;;;;;14.30;6.57;;;-0.70;99.90;;;;;;4926870;29;20180;-83
2022/01/08 10:19:23;;;;;;;28.67;8.93;;;-0.50;99.90;;;;;;4937220;29;20446;-83
2022/01/08 10:21:50;;;;;;;31.95;14.65;;;;;;;;;;4920665;29;20426;-83
2022/01/08 10:24:26;;;;;;;14.40;6.97;;;-0.20;94.00;;;;;;4934514;29;20182;-82
2022/01/08 10:26:52;;;;;;;11.80;6.87;;;;;;;;;;4923575;29;20255;-84
2022/01/08 10:29:20;;;;;;;29.43;10.30;;;;;;;;;;4936283;29;20180;-83
2022/01/08 10:31:51;;;;;;;18.50;8.00;;;;;;;;;;4934653;29;20247;-83
2022/01/08 10:34:17;;;;;;;33.23;13.03;;;;;;;;;;4935297;29;20184;-84
2022/01/08 10:36:43;;;;;;;38.07;14.63;;;;;;;;;;4920006;29;20196;-84
2022/01/08 10:39:12;;;;;;;34.10;12.67;;;;;;;;;;4913333;29;20687;-83
2022/01/08 10:41:43;;;;;;;40.17;13.93;;;;;;;;;;4913471;29;20211;-83
2022/01/08 10:44:11;;;;;;;34.20;13.50;;;;;;;;;;4920479;29;20195;-83
2022/01/08 10:46:38;;;;;;;26.67;11.23;;;;;;;;;;4925575;29;20236;-83
2022/01/08 10:49:04;;;;;;;31.23;9.97;;;;;;;;;;4901149;29;20189;-84
2022/01/08 10:51:35;;;;;;;38.10;13.57;;;;;;;;;;4924978;29;20231;-83
2022/01/08 10:54:08;;;;;;;41.17;14.23;;;;;;;;;;4931737;29;21650;-82
2022/01/08 10:56:44;;;;;;;37.37;13.77;;;;;;;;;;4937452;29;20183;-83
2022/01/08 10:59:11;;;;;;;22.50;10.03;;;;;;;;;;4936820;29;20295;-83
2022/01/08 11:01:47;;;;;;;20.33;8.13;;;;;;;;;;4920592;29;20225;-82
2022/01/08 11:04:15;;;;;;;16.33;7.53;;;0.30;92.80;;;;;;4906904;29;20200;-82
2022/01/08 11:06:50;;;;;;;13.27;7.57;;;-0.10;99.90;;;;;;4937963;29;20636;-83
2022/01/08 11:09:16;;;;;;;13.77;7.13;;;;;;;;;;4904063;29;20205;-82
2022/01/08 11:11:43;;;;;;;17.63;7.50;;;0.00;94.10;;;;;;4920659;29;20207;-84
2022/01/08 11:14:22;;;;;;;5.73;3.47;;;0.20;93.00;;;;;;4924818;29;20195;-86
2022/01/08 11:16:54;;;;;;;13.70;7.43;;;0.10;92.80;;;;;;4927755;29;20195;-83
2022/01/08 11:19:20;;;;;;;13.40;6.67;;;;;;;;;;4917852;29;20195;-83
2022/01/08 11:21:48;;;;;;;14.40;7.47;;;0.20;92.70;;;;;;4903263;29;20191;-83
2022/01/08 11:24:17;;;;;;;17.93;7.50;;;0.10;93.50;;;;;;4939082;29;20203;-83
2022/01/08 11:26:47;;;;;;;15.67;7.50;;;;;;;;;;4942719;29;20183;-86
2022/01/08 11:29:14;;;;;;;12.67;6.50;;;;;;;;;;4943393;29;20171;-84
2022/01/08 11:31:41;;;;;;;14.60;6.20;;;;;;;;;;4914901;29;20218;-88
2022/01/08 11:34:10;;;;;;;11.60;6.17;;;;;;;;;;4920431;29;20195;-83
2022/01/08 11:36:37;;;;;;;19.20;8.13;;;;;;;;;;4937710;29;20199;-84
2022/01/08 11:39:03;;;;;;;18.87;8.30;;;;;;;;;;4922089;29;20203;-85
2022/01/08 11:41:30;;;;;;;14.10;7.53;;;0.50;91.30;;;;;;4937811;29;20233;-86
2022/01/08 11:43:56;;;;;;;21.53;9.00;;;;;;;;;;4918760;29;20200;-86
2022/01/08 11:46:24;;;;;;;15.13;7.10;;;;;;;;;;4908381;29;20192;-86
2022/01/08 11:48:51;;;;;;;25.87;10.47;;;0.70;91.10;;;;;;4915476;29;20198;-84
2022/01/08 11:51:23;;;;;;;12.07;6.67;;;1.10;89.10;;;;;;4909734;29;20223;-84
2022/01/08 11:53:54;;;;;;;16.77;6.83;;;1.00;83.30;;;;;;4920351;29;20641;-89
2022/01/08 11:56:21;;;;;;;22.33;8.77;;;1.00;85.20;;;;;;4937487;29;20548;-82
2022/01/08 11:59:04;;;;;;;27.27;15.60;;;1.20;86.00;;;;;;4929340;29;20240;-85
2022/01/08 12:01:30;;;;;;;27.07;11.83;;;;;;;;;;4924271;29;20212;-84
2022/01/08 12:03:56;;;;;;;30.57;13.27;;;;;;;;;;4936293;29;20664;-82
2022/01/08 12:08:48;;;;;;;29.70;14.43;;;;;;;;;;4936201;29;20287;-84
2022/01/08 12:11:14;;;;;;;30.27;13.97;;;;;;;;;;4919613;29;20202;-84
2022/01/08 12:13:44;;;;;;;29.27;13.13;;;1.90;80.30;;;;;;4919846;29;20692;-84
2022/01/08 12:16:32;;;;;;;31.57;13.40;;;1.90;82.00;;;;;;4922423;29;20203;-85
2022/01/08 12:18:58;;;;;;;30.57;13.03;;;;;;;;;;4925183;29;20195;-83
2022/01/08 12:21:32;;;;;;;22.20;10.27;;;2.30;97.00;;;;;;4935858;29;20209;-83
2022/01/08 12:24:01;;;;;;;19.97;9.13;;;;;;;;;;4936107;29;20189;-85
2022/01/08 12:26:28;;;;;;;26.87;10.53;;;;;;;;;;4902714;29;20196;-84
2022/01/08 12:28:57;;;;;;;20.80;8.83;;;;;;;;;;4936296;29;20653;-84
2022/01/08 12:31:50;;;;;;;21.00;9.33;;;1.80;95.30;;;;;;4938352;29;20176;-85
2022/01/08 12:34:27;;;;;;;33.17;12.93;;;2.30;98.00;;;;;;4920121;29;20210;-84
2022/01/08 12:36:59;;;;;;;26.17;11.97;;;2.60;71.40;;;;;;4938090;29;20165;-84
2022/01/08 12:39:43;;;;;;;26.17;12.50;;;;;;;;;;4921149;29;20680;-85
2022/01/08 12:42:25;;;;;;;25.70;11.60;;;3.00;83.10;;;;;;4902989;29;20244;-85
2022/01/08 12:45:29;;;;;;;29.13;13.57;;;3.00;93.50;;;;;;4918773;29;20223;-84
2022/01/08 12:48:04;;;;;;;35.77;14.80;;;2.60;94.10;;;;;;4936298;29;20231;-86
2022/01/08 12:50:41;;;;;;;33.73;14.20;;;2.80;71.70;;;;;;4943517;29;20264;-84
2022/01/08 12:53:07;;;;;;;31.27;14.23;;;;;;;;;;4939108;29;20182;-83
2022/01/08 12:55:50;;;;;;;34.27;14.37;;;3.10;72.70;;;;;;4939604;29;20171;-83
2022/01/08 12:58:24;;;;;;;25.37;13.03;;;3.40;97.20;;;;;;4921856;29;20185;-84
2022/01/08 13:01:17;;;;;;;22.50;10.07;;;3.70;96.40;;;;;;4922195;29;20263;-84
2022/01/08 13:03:52;;;;;;;26.00;11.63;;;3.40;84.20;;;;;;4938907;29;20171;-83
2022/01/08 13:06:18;;;;;;;23.80;11.20;;;;;;;;;;4932251;29;20283;-83
2022/01/08 13:08:47;;;;;;;19.83;10.33;;;2.60;75.80;;;;;;4916597;29;20196;-82
2022/01/08 13:11:20;;;;;;;26.50;11.60;;;2.10;78.70;;;;;;4933887;29;20197;-83
2022/01/08 13:13:47;;;;;;;18.53;9.97;;;1.70;81.60;;;;;;4915985;29;20203;-83
2022/01/08 13:16:16;;;;;;;22.50;10.90;;;1.40;87.00;;;;;;4925993;29;20249;-82
2022/01/08 13:18:52;;;;;;;23.53;11.53;;;1.20;90.10;;;;;;4915589;29;20184;-83
2022/01/08 13:21:18;;;;;;;29.77;12.67;;;;;;;;;;4933760;29;20622;-83
2022/01/08 13:23:49;;;;;;;28.43;12.53;;;1.20;99.90;;;;;;4921798;29;20199;-82
2022/01/08 13:26:26;;;;;;;30.63;12.07;;;0.90;93.70;;;;;;4933711;29;20194;-82
2022/01/08 13:28:52;;;;;;;45.10;21.43;;;;;;;;;;4919258;29;20279;-83
2022/01/08 13:31:18;;;;;;;47.47;26.00;;;;;;;;;;4932436;29;20263;-84
2022/01/08 13:33:55;;;;;;;29.07;14.77;;;0.60;99.90;;;;;;4917086;29;20188;-84
2022/01/08 13:36:22;;;;;;;39.33;18.47;;;0.60;98.40;;;;;;4931580;29;20210;-82
2022/01/08 13:38:48;;;;;;;28.27;14.40;;;;;;;;;;4913615;29;20278;-82
2022/01/08 13:41:16;;;;;;;16.83;9.40;;;0.60;98.10;;;;;;4918406;29;20269;-82
2022/01/08 13:43:58;;;;;;;44.90;17.33;;;;;;;;;;4927659;29;20188;-82
2022/01/08 13:46:29;;;;;;;105.27;35.90;;;0.50;99.10;;;;;;4933594;29;20211;-83
2022/01/08 13:48:56;;;;;;;68.40;28.13;;;0.40;99.90;;;;;;4927408;29;20195;-83
2022/01/08 13:51:25;;;;;;;105.60;40.23;;;0.40;99.90;;;;;;4900410;29;20196;-83
2022/01/08 13:54:19;;;;;;;108.00;40.10;;;0.30;99.90;;;;;;4917013;29;20203;-83
2022/01/08 13:56:45;;;;;;;53.67;24.70;;;;;;;;;;4903940;29;20196;-85
2022/01/08 13:59:17;;;;;;;95.77;36.57;;;0.20;99.90;;;;;;4930096;29;20236;-83
2022/01/08 14:01:43;;;;;;;108.87;46.10;;;;;;;;;;4915267;29;20656;-84
2022/01/08 14:04:10;;;;;;;76.60;39.17;;;0.10;99.90;;;;;;4913141;29;20208;-81
2022/01/08 14:06:39;;;;;;;63.93;29.43;;;0.10;99.90;;;;;;4913252;29;20202;-83
2022/01/08 14:09:05;;;;;;;120.70;46.63;;;-0.10;99.90;;;;;;4933928;29;20218;-84
2022/01/08 14:11:32;;;;;;;170.80;60.60;;;;;;;;;;4916111;29;20250;-82
2022/01/08 14:13:59;;;;;;;188.77;57.90;;;;;;;;;;4925214;29;20196;-82
2022/01/08 14:16:29;;;;;;;141.70;50.20;;;;;;;;;;4927201;29;20200;-82